Time;durP1;ratioP1;P1;durP2;ratioP2;P2;SDS_P1;SDS_P2;PMS_P1;PMS_P2;Temp;Humidity;BMP_temperature;BMP_pressure;BME280_temperature;BME280_humidity;BME280_pressure;Samples;Min_cycle;Max_cycle;Signal;HPM_P1;HPM_P2
2022/08/30 02:45:32;;;;;;;;;;;20.90;69.40;;;;;;6138043;23;20027;-69
2022/08/30 02:47:59;;;;;;;;;;;20.80;68.60;;;;;;6119945;23;19945;-68
2022/08/30 02:50:26;;;;;;;;;;;20.80;68.00;;;;;;6119606;23;19931;-67
2022/08/30 02:52:52;;;;;;;;;;;20.80;68.00;;;;;;6119279;23;19941;-66
2022/08/30 02:55:19;;;;;;;;;;;20.80;67.60;;;;;;6119799;23;19963;-68
2022/08/30 02:57:46;;;;;;;;;;;20.90;67.70;;;;;;6118952;23;19909;-68
2022/08/30 03:00:14;;;;;;;;;;;20.90;67.40;;;;;;6120729;23;19909;-68
2022/08/30 03:02:40;;;;;;;;;;;20.90;67.40;;;;;;6120403;23;19909;-68
2022/08/30 03:05:07;;;;;;;;;;;21.10;66.80;;;;;;6120278;23;19917;-67
2022/08/30 03:07:34;;;;;;;;;;;21.10;66.30;;;;;;6121092;23;19905;-66
2022/08/30 03:10:01;;;;;;;;;;;21.20;66.00;;;;;;6120107;23;19913;-68
2022/08/30 03:12:27;;;;;;;;;;;21.30;65.90;;;;;;6120840;23;19964;-68
2022/08/30 03:14:54;;;;;;;;;;;21.20;66.00;;;;;;6090672;23;19961;-68
2022/08/30 03:17:20;;;;;;;;;;;21.30;65.70;;;;;;6120590;23;19908;-69
2022/08/30 03:19:47;;;;;;;;;;;21.20;66.50;;;;;;6120292;23;19924;-67
2022/08/30 03:22:14;;;;;;;;;;;21.10;67.60;;;;;;6120461;23;20354;-69
2022/08/30 03:24:40;;;;;;;;;;;21.00;68.10;;;;;;6120480;23;19952;-69
2022/08/30 03:27:07;;;;;;;;;;;21.10;66.60;;;;;;6120291;23;19905;-68
2022/08/30 03:29:33;;;;;;;;;;;21.20;66.80;;;;;;6120611;23;19909;-69
2022/08/30 03:32:00;;;;;;;;;;;21.10;66.90;;;;;;6120701;23;20574;-68
2022/08/30 03:34:27;;;;;;;;;;;21.10;66.80;;;;;;6120735;23;19959;-68
2022/08/30 03:36:54;;;;;;;;;;;21.10;67.30;;;;;;6119774;23;19920;-69
2022/08/30 03:39:21;;;;;;;;;;;21.20;66.00;;;;;;6120945;23;19936;-69
2022/08/30 03:41:47;;;;;;;;;;;21.10;65.60;;;;;;6120113;23;19909;-68
2022/08/30 03:44:14;;;;;;;;;;;21.10;67.10;;;;;;6121059;23;20412;-68
2022/08/30 03:46:40;;;;;;;;;;;21.20;66.20;;;;;;6125857;23;19940;-68
2022/08/30 03:49:07;;;;;;;;;;;21.10;66.40;;;;;;6149029;23;20288;-68
2022/08/30 03:51:34;;;;;;;;;;;21.20;66.50;;;;;;6149490;23;19983;-69
2022/08/30 03:54:01;;;;;;;;;;;21.20;66.70;;;;;;6149399;23;19909;-68
2022/08/30 03:56:28;;;;;;;;;;;21.10;66.40;;;;;;6148926;23;19935;-68
2022/08/30 03:58:54;;;;;;;;;;;21.20;67.00;;;;;;6148955;23;19909;-69
2022/08/30 04:01:21;;;;;;;;;;;21.20;65.90;;;;;;6148135;23;20383;-68
2022/08/30 04:03:47;;;;;;;;;;;21.30;65.70;;;;;;6149790;23;20212;-68
2022/08/30 04:06:14;;;;;;;;;;;21.20;65.80;;;;;;6149072;23;19931;-67
2022/08/30 04:08:42;;;;;;;;;;;21.30;65.80;;;;;;6149219;23;19987;-68
2022/08/30 04:11:08;;;;;;;;;;;21.30;66.00;;;;;;6123496;23;19912;-67
2022/08/30 04:13:35;;;;;;;;;;;21.20;65.90;;;;;;6149817;23;19936;-68
2022/08/30 04:16:01;;;;;;;;;;;21.20;66.70;;;;;;6147181;23;19932;-68
2022/08/30 04:18:28;;;;;;;;;;;21.10;66.80;;;;;;6151882;23;19909;-68
2022/08/30 04:20:55;;;;;;;;;;;21.20;65.20;;;;;;6151049;23;19909;-68
2022/08/30 04:23:21;;;;;;;;;;;21.20;65.80;;;;;;6151268;23;19905;-67
2022/08/30 04:25:48;;;;;;;;;;;21.30;65.30;;;;;;6151572;23;19921;-68
2022/08/30 04:28:15;;;;;;;;;;;21.20;65.90;;;;;;6152141;23;19967;-67
2022/08/30 04:30:42;;;;;;;;;;;21.20;66.60;;;;;;6126092;23;19911;-67
2022/08/30 04:33:09;;;;;;;;;;;21.20;66.20;;;;;;6151515;23;19934;-68
2022/08/30 04:35:35;;;;;;;;;;;21.20;66.10;;;;;;6151004;23;19908;-68
2022/08/30 04:38:02;;;;;;;;;;;21.20;66.30;;;;;;6151368;23;20420;-67
2022/08/30 04:40:29;;;;;;;;;;;21.20;66.20;;;;;;6125167;23;19908;-67
2022/08/30 04:42:56;;;;;;;;;;;21.20;66.70;;;;;;6152086;23;19908;-67
2022/08/30 04:45:22;;;;;;;;;;;21.20;65.70;;;;;;6150382;23;19913;-67
2022/08/30 04:47:49;;;;;;;;;;;21.20;66.00;;;;;;6125526;23;19909;-67
2022/08/30 04:50:16;;;;;;;;;;;21.20;66.10;;;;;;6151894;23;19912;-67
2022/08/30 04:52:43;;;;;;;;;;;21.20;65.80;;;;;;6152508;23;20014;-68
2022/08/30 04:55:10;;;;;;;;;;;21.20;65.40;;;;;;6152379;23;19909;-68
2022/08/30 04:57:36;;;;;;;;;;;21.20;65.10;;;;;;6151824;23;20011;-67
2022/08/30 05:00:07;;;;;;;;;;;21.20;66.00;;;;;;6151516;23;19912;-65
2022/08/30 05:02:33;;;;;;;;;;;21.10;65.50;;;;;;6152555;23;19916;-65
2022/08/30 05:07:45;;;;;;;;;;;21.10;66.70;;;;;;6152617;23;20316;-66
2022/08/30 05:10:12;;;;;;;;;;;21.20;66.80;;;;;;6152496;23;19913;-67
2022/08/30 05:12:39;;;;;;;;;;;21.20;65.80;;;;;;6150993;23;19919;-67
2022/08/30 05:17:31;;;;;;;;;;;21.10;66.60;;;;;;6148210;23;19951;-66
2022/08/30 05:19:59;;;;;;;;;;;21.00;66.20;;;;;;6151971;23;19923;-66
2022/08/30 05:22:26;;;;;;;;;;;21.00;66.00;;;;;;6151522;23;19909;-66
2022/08/30 05:24:53;;;;;;;;;;;21.10;65.70;;;;;;6152648;23;20354;-69
2022/08/30 05:27:19;;;;;;;;;;;21.00;66.10;;;;;;6153298;23;19952;-67
2022/08/30 05:29:46;;;;;;;;;;;21.00;66.30;;;;;;6153861;23;19905;-67
2022/08/30 05:32:13;;;;;;;;;;;21.00;65.80;;;;;;6127037;23;20347;-66
2022/08/30 05:34:39;;;;;;;;;;;21.00;66.30;;;;;;6153240;23;19912;-67
2022/08/30 05:37:06;;;;;;;;;;;21.00;66.20;;;;;;6154494;23;19932;-67
2022/08/30 05:39:32;;;;;;;;;;;21.00;66.40;;;;;;6154329;23;20407;-67
2022/08/30 05:41:59;;;;;;;;;;;21.00;66.70;;;;;;6154244;23;19916;-67
2022/08/30 05:44:25;;;;;;;;;;;20.90;67.20;;;;;;6154408;23;19959;-67
2022/08/30 05:46:52;;;;;;;;;;;20.90;67.10;;;;;;6154409;23;20325;-67
2022/08/30 05:49:19;;;;;;;;;;;21.00;66.60;;;;;;6153987;23;19909;-68
2022/08/30 05:51:45;;;;;;;;;;;20.90;66.50;;;;;;6153311;23;19920;-67
2022/08/30 05:54:12;;;;;;;;;;;20.90;66.70;;;;;;6153302;23;19905;-67
2022/08/30 05:56:39;;;;;;;;;;;20.90;66.40;;;;;;6153618;23;19905;-67
2022/08/30 05:59:06;;;;;;;;;;;20.90;66.40;;;;;;6153218;23;19919;-67
2022/08/30 06:01:34;;;;;;;;;;;20.90;66.40;;;;;;6152974;23;19905;-68
2022/08/30 06:04:01;;;;;;;;;;;20.90;66.70;;;;;;6153163;23;20047;-67
2022/08/30 06:06:28;;;;;;;;;;;20.80;66.90;;;;;;6141582;23;20004;-68
2022/08/30 06:08:54;;;;;;;;;;;20.80;67.10;;;;;;6153600;23;19909;-67
2022/08/30 06:11:22;;;;;;;;;;;20.80;67.30;;;;;;6154019;23;19909;-67
2022/08/30 06:13:48;;;;;;;;;;;20.80;67.40;;;;;;6127405;23;19905;-67
2022/08/30 11:29:26;;;;;;;;;;;17.30;53.30;;;;;;6151146;23;20024;-68
2022/08/30 11:31:53;;;;;;;;;;;17.20;53.60;;;;;;6152422;23;20269;-67
2022/08/30 11:34:46;;;;;;;;;;;17.20;53.90;;;;;;6126497;23;19909;-68
2022/08/30 11:37:34;;;;;;;;;;;17.10;54.10;;;;;;6145165;23;19955;-67
2022/08/30 11:40:02;;;;;;;;;;;17.10;54.50;;;;;;6152403;23;19959;-67
2022/08/30 11:42:33;;;;;;;;;;;17.10;54.60;;;;;;6125972;23;19913;-70
2022/08/30 11:45:18;;;;;;;;;;;17.10;54.70;;;;;;6151057;23;20332;-67
2022/08/30 11:47:46;;;;;;;;;;;17.10;55.40;;;;;;6151556;23;19909;-67
2022/08/30 11:50:32;;;;;;;;;;;17.00;54.80;;;;;;6151527;23;20269;-66
2022/08/30 11:53:25;;;;;;;;;;;17.00;55.10;;;;;;6151986;23;19963;-66
2022/08/30 11:56:00;;;;;;;;;;;17.00;54.70;;;;;;6106675;23;19915;-67
2022/08/30 11:58:43;;;;;;;;;;;16.90;55.00;;;;;;6152219;23;19915;-68
2022/08/30 12:01:14;;;;;;;;;;;16.90;55.10;;;;;;6151775;23;19920;-67
2022/08/30 12:03:40;;;;;;;;;;;16.90;55.10;;;;;;6152189;23;19911;-69
2022/08/30 12:06:07;;;;;;;;;;;16.80;55.60;;;;;;6151370;23;19912;-67
2022/08/30 12:08:34;;;;;;;;;;;16.80;56.00;;;;;;6151187;23;20367;-67
2022/08/30 12:11:10;;;;;;;;;;;16.80;55.80;;;;;;6150793;23;19913;-67
2022/08/30 12:13:37;;;;;;;;;;;16.80;56.60;;;;;;6126765;23;19905;-67
2022/08/30 12:16:05;;;;;;;;;;;16.80;56.90;;;;;;6151078;23;19980;-68
2022/08/30 12:18:37;;;;;;;;;;;16.70;56.40;;;;;;6125699;23;19909;-68
2022/08/30 12:21:23;;;;;;;;;;;16.70;56.50;;;;;;6125751;23;19908;-68
2022/08/30 12:24:08;;;;;;;;;;;16.60;56.70;;;;;;6131274;23;20328;-66
2022/08/30 12:26:36;;;;;;;;;;;16.50;57.20;;;;;;6151026;23;19916;-68
2022/08/30 12:29:19;;;;;;;;;;;16.50;57.50;;;;;;6151542;23;19927;-67
2022/08/30 12:31:49;;;;;;;;;;;16.50;57.90;;;;;;6150585;23;19912;-66
2022/08/30 12:34:21;;;;;;;;;;;16.50;58.30;;;;;;6151366;23;19908;-67
2022/08/30 12:36:49;;;;;;;;;;;16.50;58.20;;;;;;6149745;23;19912;-67
2022/08/30 12:39:17;;;;;;;;;;;16.50;58.40;;;;;;6125464;23;19913;-69
2022/08/30 12:41:44;;;;;;;;;;;16.50;58.40;;;;;;6126164;23;19912;-68
2022/08/30 12:44:14;;;;;;;;;;;16.40;58.10;;;;;;6151573;23;20240;-68
2022/08/30 12:46:41;;;;;;;;;;;16.50;59.00;;;;;;6153804;23;20237;-68
2022/08/30 12:49:08;;;;;;;;;;;16.40;59.10;;;;;;6129223;23;19905;-68
2022/08/30 12:51:39;;;;;;;;;;;16.40;58.50;;;;;;6129342;23;19905;-68
2022/08/30 12:54:26;;;;;;;;;;;16.40;59.00;;;;;;6129192;23;19935;-67
2022/08/30 12:57:00;;;;;;;;;;;16.30;58.70;;;;;;6154696;23;19912;-67
2022/08/30 12:59:43;;;;;;;;;;;16.30;58.80;;;;;;6128568;23;19911;-67
2022/08/30 13:02:20;;;;;;;;;;;16.30;58.60;;;;;;6154840;23;19905;-67
2022/08/30 13:04:47;;;;;;;;;;;16.20;58.20;;;;;;6154705;23;19936;-68
2022/08/30 13:07:23;;;;;;;;;;;16.20;58.40;;;;;;6128476;23;19936;-67
2022/08/30 13:09:50;;;;;;;;;;;16.20;58.60;;;;;;6129005;23;20248;-67
2022/08/30 13:12:22;;;;;;;;;;;16.20;58.30;;;;;;6129323;23;19905;-68
2022/08/30 13:14:49;;;;;;;;;;;16.20;58.90;;;;;;6155217;23;19909;-67
2022/08/30 13:17:18;;;;;;;;;;;16.20;58.90;;;;;;6154496;23;20343;-67
2022/08/30 13:19:58;;;;;;;;;;;16.20;58.30;;;;;;6155919;23;19908;-67
2022/08/30 13:22:26;;;;;;;;;;;16.20;58.80;;;;;;6155231;23;19944;-68
2022/08/30 13:24:53;;;;;;;;;;;16.20;58.50;;;;;;6154397;23;19959;-67
2022/08/30 13:27:20;;;;;;;;;;;16.20;59.30;;;;;;6154200;23;19974;-67
2022/08/30 13:29:46;;;;;;;;;;;16.10;59.40;;;;;;6128894;23;19915;-68
2022/08/30 13:32:13;;;;;;;;;;;16.10;59.60;;;;;;6154865;23;19905;-67
2022/08/30 13:34:40;;;;;;;;;;;16.10;59.20;;;;;;6154915;23;19915;-67
2022/08/30 14:35:07;;;;;;;;;;;15.60;60.00;;;;;;6149155;23;19924;-67
2022/08/30 14:37:34;;;;;;;;;;;15.60;59.70;;;;;;6124174;23;19954;-67
2022/08/30 14:40:01;;;;;;;;;;;15.60;59.60;;;;;;6125147;23;19905;-68
2022/08/30 14:42:27;;;;;;;;;;;15.60;59.50;;;;;;6124978;23;19960;-67
2022/08/30 14:44:54;;;;;;;;;;;15.50;59.80;;;;;;6124887;23;20252;-67
2022/08/30 14:47:21;;;;;;;;;;;15.50;59.60;;;;;;6124841;23;19905;-67
2022/08/30 14:49:48;;;;;;;;;;;15.50;59.60;;;;;;6124818;23;20319;-67
2022/08/30 14:52:14;;;;;;;;;;;15.50;59.60;;;;;;6124964;23;19911;-67
2022/08/30 14:54:41;;;;;;;;;;;15.50;59.50;;;;;;6124677;23;19936;-67
2022/08/30 14:57:07;;;;;;;;;;;15.50;59.70;;;;;;6124626;23;20024;-67
2022/08/30 14:59:34;;;;;;;;;;;15.40;59.40;;;;;;6125112;23;19905;-67
2022/08/30 15:02:01;;;;;;;;;;;15.50;60.00;;;;;;6124949;23;19909;-68
2022/08/30 15:04:28;;;;;;;;;;;15.50;59.50;;;;;;6124583;23;20363;-67
2022/08/30 15:06:55;;;;;;;;;;;15.50;59.90;;;;;;6125584;23;20232;-68
2022/08/30 15:09:22;;;;;;;;;;;15.50;59.80;;;;;;6126667;23;19912;-67
2022/08/30 15:11:49;;;;;;;;;;;15.50;59.50;;;;;;6126604;23;19905;-67
2022/08/30 15:14:16;;;;;;;;;;;15.40;59.60;;;;;;6126505;23;19905;-67
2022/08/30 15:16:42;;;;;;;;;;;15.40;60.00;;;;;;6126506;23;19905;-67
2022/08/30 15:19:09;;;;;;;;;;;15.40;60.00;;;;;;6125725;23;19952;-67
2022/08/30 15:21:40;;;;;;;;;;;15.40;60.20;;;;;;6126019;23;20385;-67
2022/08/30 15:24:08;;;;;;;;;;;15.40;60.40;;;;;;6126280;23;19928;-68
2022/08/30 15:26:35;;;;;;;;;;;15.40;60.60;;;;;;6126034;23;19941;-68
2022/08/30 15:29:02;;;;;;;;;;;15.40;60.50;;;;;;6126356;23;19937;-68
2022/08/30 15:31:30;;;;;;;;;;;15.30;60.80;;;;;;6126444;23;19905;-67
2022/08/30 15:33:57;;;;;;;;;;;15.30;60.70;;;;;;6126523;23;19920;-67
2022/08/30 15:36:24;;;;;;;;;;;15.30;60.70;;;;;;6141486;23;19923;-68
2022/08/30 15:38:58;;;;;;;;;;;15.30;60.40;;;;;;6155661;23;20372;-67
2022/08/30 15:41:24;;;;;;;;;;;15.30;60.90;;;;;;6155521;23;19904;-67
2022/08/30 15:43:51;;;;;;;;;;;15.30;61.20;;;;;;6155870;23;19904;-67
2022/08/30 15:46:24;;;;;;;;;;;15.30;61.00;;;;;;6155247;23;19916;-67
2022/08/30 15:48:51;;;;;;;;;;;15.30;61.10;;;;;;6156331;23;19912;-67
2022/08/30 15:51:18;;;;;;;;;;;15.20;61.00;;;;;;6156161;23;19908;-68
2022/08/30 15:53:45;;;;;;;;;;;15.20;61.40;;;;;;6156039;23;19916;-68
2022/08/30 15:56:11;;;;;;;;;;;15.20;61.10;;;;;;6155592;23;19947;-67
2022/08/30 15:58:38;;;;;;;;;;;15.20;61.70;;;;;;6155725;23;19905;-67
2022/08/30 16:01:05;;;;;;;;;;;15.20;61.50;;;;;;6156121;23;20256;-67
2022/08/30 16:03:32;;;;;;;;;;;15.20;61.40;;;;;;6155840;23;19931;-67
2022/08/30 16:43:30;;;;;;;;;;;14.80;63.30;;;;;;6152316;23;19923;-68
2022/08/30 16:45:58;;;;;;;;;;;14.70;63.20;;;;;;6154338;23;19925;-67
2022/08/30 16:48:25;;;;;;;;;;;14.70;63.50;;;;;;6154975;23;19905;-67
2022/08/30 16:50:51;;;;;;;;;;;14.70;63.50;;;;;;6155044;23;19911;-67
2022/08/30 16:53:18;;;;;;;;;;;14.70;63.80;;;;;;6155126;23;19904;-67
2022/08/30 16:55:45;;;;;;;;;;;14.70;64.30;;;;;;6154730;23;19939;-67
2022/08/30 16:58:11;;;;;;;;;;;14.70;64.30;;;;;;6154586;23;19976;-67
2022/08/30 17:00:38;;;;;;;;;;;14.70;64.40;;;;;;6154928;23;19908;-68
2022/08/30 17:03:05;;;;;;;;;;;14.60;64.40;;;;;;6154943;23;20248;-67
2022/08/30 17:05:32;;;;;;;;;;;14.50;64.20;;;;;;6154652;23;19912;-67
2022/08/30 17:07:58;;;;;;;;;;;14.50;64.30;;;;;;6155131;23;19904;-67
2022/08/30 17:10:25;;;;;;;;;;;14.50;64.70;;;;;;6154933;23;20264;-67
2022/08/30 17:12:51;;;;;;;;;;;14.50;64.80;;;;;;6155278;23;19905;-67
2022/08/30 17:15:18;;;;;;;;;;;14.40;64.70;;;;;;6154729;23;19912;-67
2022/08/30 17:17:45;;;;;;;;;;;14.40;65.00;;;;;;6154968;23;19905;-66
2022/08/30 17:20:12;;;;;;;;;;;14.40;65.20;;;;;;6155223;23;19932;-66
2022/08/30 17:22:39;;;;;;;;;;;14.40;65.30;;;;;;6154851;23;20324;-68
2022/08/30 17:25:06;;;;;;;;;;;14.40;65.70;;;;;;6154291;23;19940;-67
2022/08/30 17:27:32;;;;;;;;;;;14.30;65.40;;;;;;6154980;23;19928;-67
2022/08/30 17:29:59;;;;;;;;;;;14.30;65.50;;;;;;6154867;23;20297;-67
2022/08/30 17:32:25;;;;;;;;;;;14.30;65.60;;;;;;6154598;23;19905;-67
2022/08/30 17:34:52;;;;;;;;;;;14.30;65.80;;;;;;6153865;23;19905;-67
2022/08/30 17:37:19;;;;;;;;;;;14.30;65.60;;;;;;6154466;23;19991;-67
2022/08/30 17:39:46;;;;;;;;;;;14.20;65.30;;;;;;6154731;23;19904;-68
2022/08/30 17:42:13;;;;;;;;;;;14.20;65.70;;;;;;6154627;23;19912;-68
2022/08/30 17:44:39;;;;;;;;;;;14.20;65.90;;;;;;6154299;23;19979;-67
2022/08/30 17:47:06;;;;;;;;;;;14.20;66.10;;;;;;6154330;23;19940;-67
2022/08/30 17:49:33;;;;;;;;;;;14.20;66.20;;;;;;6154786;23;20010;-68
2022/08/30 17:52:00;;;;;;;;;;;14.20;66.30;;;;;;6154849;23;19915;-67
2022/08/30 17:54:26;;;;;;;;;;;14.20;66.50;;;;;;6154365;23;19912;-67
2022/08/30 17:56:53;;;;;;;;;;;14.20;66.40;;;;;;6154906;23;19916;-67
2022/08/30 17:59:20;;;;;;;;;;;14.10;66.90;;;;;;6155127;23;20304;-67
2022/08/30 18:01:46;;;;;;;;;;;14.10;66.90;;;;;;6154599;23;20275;-67
2022/08/30 18:04:13;;;;;;;;;;;14.00;66.90;;;;;;6154633;23;19909;-67
2022/08/30 18:06:40;;;;;;;;;;;14.00;67.20;;;;;;6154266;23;20304;-67
2022/08/30 18:09:07;;;;;;;;;;;14.00;67.60;;;;;;6154705;23;20397;-68
2022/08/30 18:11:34;;;;;;;;;;;14.00;67.60;;;;;;6154922;23;19908;-67
2022/08/30 18:14:01;;;;;;;;;;;14.00;67.80;;;;;;6154491;23;19912;-67
2022/08/30 18:16:28;;;;;;;;;;;14.00;67.90;;;;;;6154214;23;19905;-68
2022/08/30 18:18:55;;;;;;;;;;;14.00;67.70;;;;;;6153922;23;19948;-68
2022/08/30 18:21:21;;;;;;;;;;;13.90;67.80;;;;;;6154295;23;20248;-67
2022/08/30 18:23:49;;;;;;;;;;;14.00;68.00;;;;;;6154252;23;19905;-67
2022/08/30 18:26:16;;;;;;;;;;;13.90;68.40;;;;;;6154420;23;19917;-67
2022/08/30 18:28:42;;;;;;;;;;;13.90;68.30;;;;;;6154588;23;19911;-67
2022/08/30 18:31:09;;;;;;;;;;;13.90;68.60;;;;;;6154064;23;19912;-67
2022/08/30 18:33:36;;;;;;;;;;;13.90;68.60;;;;;;6154284;23;19904;-68
2022/08/30 18:36:02;;;;;;;;;;;13.90;68.70;;;;;;6154781;23;19909;-67
2022/08/30 18:38:29;;;;;;;;;;;13.80;68.90;;;;;;6128400;23;19912;-67
2022/08/30 18:40:59;;;;;;;;;;;13.80;68.80;;;;;;6154435;23;20324;-68
2022/08/30 18:43:26;;;;;;;;;;;13.80;68.80;;;;;;6156307;23;19980;-68
2022/08/30 18:45:53;;;;;;;;;;;13.70;68.90;;;;;;6156681;23;20331;-67
2022/08/30 18:48:19;;;;;;;;;;;13.80;69.10;;;;;;6156328;23;19909;-67
2022/08/30 18:50:46;;;;;;;;;;;13.80;69.10;;;;;;6156619;23;19912;-68
2022/08/30 18:53:13;;;;;;;;;;;13.70;69.10;;;;;;6156516;23;19912;-67
2022/08/30 18:55:39;;;;;;;;;;;13.70;69.60;;;;;;6129861;23;20338;-68
